Aeroporto :
LOGIN :

Iscrizione | Disclaimer

   EN    FR    IT 

 










Sommario :    VFR   VFR Marginale   IFR   IFR Intensivo   IFR Molto Intensivo
Visibilità : 
Base nubi : 
>= 8 km
>= 3000ft
5 / 8 km
1000 / 3000 ft
1500m / 5 km
500 / 1000 ft
800 / 1500m
200 / 500 ft
< 800m
< 200 ft
Simboli :   Temporali  Nebbia  Neve Forte  Precipitazioni Forti  Vento > 20 kt
SIGMETs :   Varie  Temporali  Ghiacco  Turbolenza  Onda orograficha  Ceneri Vulcaniche






- Altitudine del aeroporto : 289 ft
- Codice IATA : ZAD


LDZD - Zadar

ULTIMO METAR :
  • 120100Z 09006KT 050V120 9999 SCT033 BKN075 13/11 Q1007 RERA

METARs OBSOLETI :
  • 120030Z 08006KT 030V110 9999 -RA SCT033 BKN045 13/12 Q1008
  • 120000Z 09007KT 050V140 9999 -RA SCT033 BKN065 13/12 Q1008
  • 112330Z 12008KT 080V150 9999 SCT033 BKN065 13/11 Q1009
  • 112300Z 12005KT 080V150 9999 SCT033 BKN065 14/10 Q1009
  • 112230Z 12007KT 080V150 9999 FEW070 14/10 Q1009

TAF TAF LDZD
Valido dal 12 a 00 ore il 13 a 00 ore UTC


112325Z 1200/1300 11010KT 9999 SCT015 BKN030 TX16/1218Z TN12/1204Z
PROB30
TEMPO 1200/1203 TS FEW025CB BKN030
TEMPO 1206/1215 RA
BECMG 1208/1210 14020KT
TEMPO 1212/1300 14025G35KT
PROB40
TEMPO 1212/1300 TSRA FEW020CB BKN025



MetMap, La meteo Aeronautica in un colpo d'occhio ! - Copyright ORBIFLY Dicembre 2007 - Disclaimer

ORBIFLY MET'MAP TEAM :

Programmazione e sviluppo : Alexandra Zaïnal
Concezione e sviluppo : Baudouin d'Aumeries
Co-Programmazione e sviluppo : Marc-Olivier Méhu
Supporto tecnico e logistico : Manuel Goepfert
Aiuto per la traduzione : Arnaldo La Scala

Contatto : metmap@orbifly.com




FONTI E CREDITI :

   NOAA